sensor_id;sensor_type;location;lat;lon;timestamp;P1;durP1;ratioP1;P2;durP2;ratioP2
3000;SDS011;1510;51.072;6.678;2023-05-15T00:01:12;914.43;;;841.00;;
3000;SDS011;1510;51.072;6.678;2023-05-15T00:03:38;894.23;;;816.40;;
3000;SDS011;1510;51.072;6.678;2023-05-15T00:06:05;887.67;;;808.30;;
3000;SDS011;1510;51.072;6.678;2023-05-15T00:08:32;876.17;;;795.20;;
3000;SDS011;1510;51.072;6.678;2023-05-15T00:10:59;872.33;;;791.47;;
3000;SDS011;1510;51.072;6.678;2023-05-15T00:13:26;875.60;;;791.30;;
3000;SDS011;1510;51.072;6.678;2023-05-15T00:15:54;869.23;;;784.30;;
3000;SDS011;1510;51.072;6.678;2023-05-15T00:18:21;863.20;;;780.13;;
3000;SDS011;1510;51.072;6.678;2023-05-15T00:20:47;875.97;;;790.87;;
3000;SDS011;1510;51.072;6.678;2023-05-15T00:23:15;870.77;;;786.37;;
3000;SDS011;1510;51.072;6.678;2023-05-15T00:25:41;873.20;;;787.97;;
3000;SDS011;1510;51.072;6.678;2023-05-15T00:28:08;860.13;;;776.23;;
3000;SDS011;1510;51.072;6.678;2023-05-15T00:30:35;859.40;;;775.70;;
3000;SDS011;1510;51.072;6.678;2023-05-15T00:33:03;852.50;;;767.17;;
3000;SDS011;1510;51.072;6.678;2023-05-15T00:35:30;856.13;;;767.20;;
3000;SDS011;1510;51.072;6.678;2023-05-15T00:37:57;862.23;;;773.73;;
3000;SDS011;1510;51.072;6.678;2023-05-15T00:40:24;855.67;;;767.87;;
3000;SDS011;1510;51.072;6.678;2023-05-15T00:42:52;861.53;;;773.47;;
3000;SDS011;1510;51.072;6.678;2023-05-15T00:45:19;866.07;;;776.97;;
3000;SDS011;1510;51.072;6.678;2023-05-15T00:47:47;863.77;;;776.53;;
3000;SDS011;1510;51.072;6.678;2023-05-15T00:50:16;882.30;;;793.95;;
3000;SDS011;1510;51.072;6.678;2023-05-15T00:52:44;879.60;;;793.70;;
3000;SDS011;1510;51.072;6.678;2023-05-15T00:55:11;896.57;;;811.10;;
3000;SDS011;1510;51.072;6.678;2023-05-15T00:57:38;901.77;;;818.10;;
3000;SDS011;1510;51.072;6.678;2023-05-15T01:00:07;897.43;;;815.00;;
3000;SDS011;1510;51.072;6.678;2023-05-15T01:02:34;906.92;;;826.20;;
3000;SDS011;1510;51.072;6.678;2023-05-15T01:05:01;902.30;;;824.93;;
3000;SDS011;1510;51.072;6.678;2023-05-15T01:07:30;896.65;;;822.88;;
3000;SDS011;1510;51.072;6.678;2023-05-15T01:10:02;878.22;;;809.83;;
3000;SDS011;1510;51.072;6.678;2023-05-15T01:12:30;874.97;;;808.97;;
3000;SDS011;1510;51.072;6.678;2023-05-15T01:14:57;856.05;;;792.58;;
3000;SDS011;1510;51.072;6.678;2023-05-15T01:17:24;844.40;;;781.77;;
3000;SDS011;1510;51.072;6.678;2023-05-15T01:19:51;856.13;;;795.40;;
3000;SDS011;1510;51.072;6.678;2023-05-15T01:22:24;836.13;;;776.53;;
3000;SDS011;1510;51.072;6.678;2023-05-15T01:28:13;795.53;;;740.83;;
3000;SDS011;1510;51.072;6.678;2023-05-15T01:30:44;762.57;;;710.97;;
3000;SDS011;1510;51.072;6.678;2023-05-15T01:33:21;739.20;;;688.27;;
3000;SDS011;1510;51.072;6.678;2023-05-15T01:35:52;716.57;;;665.97;;
3000;SDS011;1510;51.072;6.678;2023-05-15T01:38:26;706.97;;;658.70;;
3000;SDS011;1510;51.072;6.678;2023-05-15T01:41:01;722.20;;;674.10;;
3000;SDS011;1510;51.072;6.678;2023-05-15T01:43:31;686.83;;;641.00;;
3000;SDS011;1510;51.072;6.678;2023-05-15T01:46:03;667.63;;;623.90;;
3000;SDS011;1510;51.072;6.678;2023-05-15T01:48:32;659.07;;;616.50;;
3000;SDS011;1510;51.072;6.678;2023-05-15T01:51:00;644.13;;;602.27;;
3000;SDS011;1510;51.072;6.678;2023-05-15T01:53:29;647.38;;;607.78;;
3000;SDS011;1510;51.072;6.678;2023-05-15T01:55:58;632.53;;;594.33;;
3000;SDS011;1510;51.072;6.678;2023-05-15T01:58:25;607.77;;;571.47;;
3000;SDS011;1510;51.072;6.678;2023-05-15T02:00:54;604.00;;;568.80;;
3000;SDS011;1510;51.072;6.678;2023-05-15T02:03:21;574.10;;;541.75;;
3000;SDS011;1510;51.072;6.678;2023-05-15T02:05:48;532.63;;;503.70;;
3000;SDS011;1510;51.072;6.678;2023-05-15T02:08:17;502.23;;;475.53;;
3000;SDS011;1510;51.072;6.678;2023-05-15T02:10:45;487.37;;;461.47;;
3000;SDS011;1510;51.072;6.678;2023-05-15T02:13:12;464.70;;;441.47;;
3000;SDS011;1510;51.072;6.678;2023-05-15T02:15:39;450.13;;;428.17;;
3000;SDS011;1510;51.072;6.678;2023-05-15T02:18:07;417.30;;;397.70;;
3000;SDS011;1510;51.072;6.678;2023-05-15T02:20:35;364.60;;;349.00;;
3000;SDS011;1510;51.072;6.678;2023-05-15T02:23:02;335.80;;;321.23;;
3000;SDS011;1510;51.072;6.678;2023-05-15T02:25:31;312.10;;;298.58;;
3000;SDS011;1510;51.072;6.678;2023-05-15T02:28:03;335.97;;;321.27;;
3000;SDS011;1510;51.072;6.678;2023-05-15T02:30:34;354.33;;;338.53;;
3000;SDS011;1510;51.072;6.678;2023-05-15T02:33:16;369.30;;;352.80;;
3000;SDS011;1510;51.072;6.678;2023-05-15T02:35:57;391.03;;;373.67;;
3000;SDS011;1510;51.072;6.678;2023-05-15T02:38:28;373.15;;;357.15;;
3000;SDS011;1510;51.072;6.678;2023-05-15T02:40:59;366.67;;;350.73;;
3000;SDS011;1510;51.072;6.678;2023-05-15T02:43:26;355.10;;;338.50;;
3000;SDS011;1510;51.072;6.678;2023-05-15T02:45:54;380.03;;;362.67;;
3000;SDS011;1510;51.072;6.678;2023-05-15T02:48:23;356.27;;;340.90;;
3000;SDS011;1510;51.072;6.678;2023-05-15T02:50:51;352.23;;;337.10;;
3000;SDS011;1510;51.072;6.678;2023-05-15T02:53:18;384.30;;;367.10;;
3000;SDS011;1510;51.072;6.678;2023-05-15T02:55:45;425.00;;;405.07;;
3000;SDS011;1510;51.072;6.678;2023-05-15T02:58:12;449.37;;;426.27;;
3000;SDS011;1510;51.072;6.678;2023-05-15T03:00:39;457.97;;;433.60;;
3000;SDS011;1510;51.072;6.678;2023-05-15T03:03:06;457.00;;;432.07;;
3000;SDS011;1510;51.072;6.678;2023-05-15T03:05:34;480.63;;;453.80;;
3000;SDS011;1510;51.072;6.678;2023-05-15T03:08:01;472.70;;;445.47;;
3000;SDS011;1510;51.072;6.678;2023-05-15T03:10:28;462.67;;;437.87;;
3000;SDS011;1510;51.072;6.678;2023-05-15T03:12:55;459.73;;;433.77;;
3000;SDS011;1510;51.072;6.678;2023-05-15T03:15:23;448.47;;;424.37;;
3000;SDS011;1510;51.072;6.678;2023-05-15T03:17:50;465.53;;;439.03;;
3000;SDS011;1510;51.072;6.678;2023-05-15T03:20:16;463.23;;;437.80;;
3000;SDS011;1510;51.072;6.678;2023-05-15T03:22:45;461.93;;;435.67;;
3000;SDS011;1510;51.072;6.678;2023-05-15T03:25:11;463.08;;;438.15;;
3000;SDS011;1510;51.072;6.678;2023-05-15T03:27:38;449.93;;;424.87;;
3000;SDS011;1510;51.072;6.678;2023-05-15T03:30:05;457.30;;;431.07;;
3000;SDS011;1510;51.072;6.678;2023-05-15T03:32:33;476.07;;;447.87;;
3000;SDS011;1510;51.072;6.678;2023-05-15T03:35:00;495.17;;;464.83;;
3000;SDS011;1510;51.072;6.678;2023-05-15T03:37:26;481.83;;;453.53;;
3000;SDS011;1510;51.072;6.678;2023-05-15T03:39:55;475.03;;;447.47;;
3000;SDS011;1510;51.072;6.678;2023-05-15T03:42:21;478.60;;;450.70;;
3000;SDS011;1510;51.072;6.678;2023-05-15T03:44:49;460.70;;;433.73;;
3000;SDS011;1510;51.072;6.678;2023-05-15T03:47:16;473.03;;;443.63;;
3000;SDS011;1510;51.072;6.678;2023-05-15T03:49:43;471.10;;;442.80;;
3000;SDS011;1510;51.072;6.678;2023-05-15T03:52:10;455.10;;;427.70;;
3000;SDS011;1510;51.072;6.678;2023-05-15T03:54:37;433.30;;;409.10;;
3000;SDS011;1510;51.072;6.678;2023-05-15T03:57:06;424.75;;;402.33;;
3000;SDS011;1510;51.072;6.678;2023-05-15T03:59:32;418.90;;;396.90;;
3000;SDS011;1510;51.072;6.678;2023-05-15T04:01:59;368.07;;;349.57;;
3000;SDS011;1510;51.072;6.678;2023-05-15T04:04:26;382.63;;;363.13;;
3000;SDS011;1510;51.072;6.678;2023-05-15T04:06:53;376.30;;;357.23;;
3000;SDS011;1510;51.072;6.678;2023-05-15T04:09:19;385.87;;;366.97;;
3000;SDS011;1510;51.072;6.678;2023-05-15T04:11:46;389.43;;;368.77;;
3000;SDS011;1510;51.072;6.678;2023-05-15T04:14:14;431.47;;;409.00;;
3000;SDS011;1510;51.072;6.678;2023-05-15T04:16:41;450.37;;;425.53;;
3000;SDS011;1510;51.072;6.678;2023-05-15T04:19:08;451.73;;;426.23;;
3000;SDS011;1510;51.072;6.678;2023-05-15T04:21:35;428.47;;;404.73;;
3000;SDS011;1510;51.072;6.678;2023-05-15T04:24:01;422.73;;;398.80;;
3000;SDS011;1510;51.072;6.678;2023-05-15T04:26:28;411.20;;;388.37;;
3000;SDS011;1510;51.072;6.678;2023-05-15T04:28:55;377.80;;;358.10;;
3000;SDS011;1510;51.072;6.678;2023-05-15T04:31:23;404.27;;;384.70;;
3000;SDS011;1510;51.072;6.678;2023-05-15T04:33:51;412.87;;;392.53;;
3000;SDS011;1510;51.072;6.678;2023-05-15T04:36:17;433.70;;;413.50;;
3000;SDS011;1510;51.072;6.678;2023-05-15T04:38:45;489.10;;;465.33;;
3000;SDS011;1510;51.072;6.678;2023-05-15T04:41:11;539.80;;;511.67;;
3000;SDS011;1510;51.072;6.678;2023-05-15T04:43:38;586.77;;;554.67;;
3000;SDS011;1510;51.072;6.678;2023-05-15T04:46:05;596.87;;;563.67;;
3000;SDS011;1510;51.072;6.678;2023-05-15T04:48:33;610.97;;;576.40;;
3000;SDS011;1510;51.072;6.678;2023-05-15T04:51:00;660.57;;;619.67;;
3000;SDS011;1510;51.072;6.678;2023-05-15T04:53:27;697.70;;;653.20;;
3000;SDS011;1510;51.072;6.678;2023-05-15T04:55:53;727.23;;;680.07;;
3000;SDS011;1510;51.072;6.678;2023-05-15T04:58:20;707.03;;;661.03;;
3000;SDS011;1510;51.072;6.678;2023-05-15T05:00:47;682.67;;;637.80;;
3000;SDS011;1510;51.072;6.678;2023-05-15T05:03:14;646.40;;;604.40;;
3000;SDS011;1510;51.072;6.678;2023-05-15T05:05:42;602.77;;;563.47;;
3000;SDS011;1510;51.072;6.678;2023-05-15T05:08:08;576.72;;;539.72;;
3000;SDS011;1510;51.072;6.678;2023-05-15T05:10:35;539.70;;;506.40;;
3000;SDS011;1510;51.072;6.678;2023-05-15T05:13:02;499.97;;;471.57;;
3000;SDS011;1510;51.072;6.678;2023-05-15T05:15:29;451.03;;;426.47;;
3000;SDS011;1510;51.072;6.678;2023-05-15T05:17:55;414.83;;;393.43;;
3000;SDS011;1510;51.072;6.678;2023-05-15T05:20:22;394.70;;;375.93;;
3000;SDS011;1510;51.072;6.678;2023-05-15T05:22:51;379.67;;;362.03;;
3000;SDS011;1510;51.072;6.678;2023-05-15T05:25:17;380.53;;;362.70;;
3000;SDS011;1510;51.072;6.678;2023-05-15T05:27:44;302.20;;;288.83;;
3000;SDS011;1510;51.072;6.678;2023-05-15T05:30:11;296.43;;;282.63;;
3000;SDS011;1510;51.072;6.678;2023-05-15T05:32:39;258.60;;;246.07;;
3000;SDS011;1510;51.072;6.678;2023-05-15T05:35:06;206.10;;;195.13;;
3000;SDS011;1510;51.072;6.678;2023-05-15T05:37:33;251.27;;;239.33;;
3000;SDS011;1510;51.072;6.678;2023-05-15T05:40:01;246.87;;;235.13;;
3000;SDS011;1510;51.072;6.678;2023-05-15T05:42:30;260.43;;;248.53;;
3000;SDS011;1510;51.072;6.678;2023-05-15T05:44:57;281.50;;;268.60;;
3000;SDS011;1510;51.072;6.678;2023-05-15T05:47:24;239.70;;;227.63;;
3000;SDS011;1510;51.072;6.678;2023-05-15T05:49:50;213.20;;;201.47;;
3000;SDS011;1510;51.072;6.678;2023-05-15T05:52:19;231.63;;;220.07;;
3000;SDS011;1510;51.072;6.678;2023-05-15T05:54:45;145.07;;;136.20;;
3000;SDS011;1510;51.072;6.678;2023-05-15T05:57:14;128.27;;;119.27;;
3000;SDS011;1510;51.072;6.678;2023-05-15T05:59:41;103.33;;;95.73;;
3000;SDS011;1510;51.072;6.678;2023-05-15T06:02:08;74.32;;;66.78;;
3000;SDS011;1510;51.072;6.678;2023-05-15T06:04:35;71.27;;;64.27;;
3000;SDS011;1510;51.072;6.678;2023-05-15T06:07:02;77.57;;;70.77;;
3000;SDS011;1510;51.072;6.678;2023-05-15T06:09:29;67.03;;;60.83;;
3000;SDS011;1510;51.072;6.678;2023-05-15T06:11:55;61.07;;;55.30;;
3000;SDS011;1510;51.072;6.678;2023-05-15T06:14:24;75.70;;;68.60;;
3000;SDS011;1510;51.072;6.678;2023-05-15T06:16:50;69.07;;;62.37;;
3000;SDS011;1510;51.072;6.678;2023-05-15T06:19:17;83.87;;;75.67;;
3000;SDS011;1510;51.072;6.678;2023-05-15T06:21:45;90.93;;;83.67;;
3000;SDS011;1510;51.072;6.678;2023-05-15T06:24:12;80.28;;;73.45;;
3000;SDS011;1510;51.072;6.678;2023-05-15T06:26:39;63.67;;;57.37;;
3000;SDS011;1510;51.072;6.678;2023-05-15T06:29:06;62.00;;;55.40;;
3000;SDS011;1510;51.072;6.678;2023-05-15T06:31:34;59.40;;;49.13;;
3000;SDS011;1510;51.072;6.678;2023-05-15T06:34:01;57.27;;;45.10;;
3000;SDS011;1510;51.072;6.678;2023-05-15T06:36:28;58.47;;;44.30;;
3000;SDS011;1510;51.072;6.678;2023-05-15T06:38:55;51.93;;;42.27;;
3000;SDS011;1510;51.072;6.678;2023-05-15T06:41:21;59.43;;;53.00;;
3000;SDS011;1510;51.072;6.678;2023-05-15T06:43:48;53.23;;;44.77;;
3000;SDS011;1510;51.072;6.678;2023-05-15T06:46:15;58.72;;;41.72;;
3000;SDS011;1510;51.072;6.678;2023-05-15T06:48:44;54.57;;;43.07;;
3000;SDS011;1510;51.072;6.678;2023-05-15T06:51:12;50.27;;;35.87;;
3000;SDS011;1510;51.072;6.678;2023-05-15T06:53:39;49.37;;;35.70;;
3000;SDS011;1510;51.072;6.678;2023-05-15T06:56:06;48.70;;;36.10;;
3000;SDS011;1510;51.072;6.678;2023-05-15T06:58:33;63.27;;;42.40;;
3000;SDS011;1510;51.072;6.678;2023-05-15T07:01:00;52.92;;;43.17;;
3000;SDS011;1510;51.072;6.678;2023-05-15T07:03:28;55.47;;;39.80;;
3000;SDS011;1510;51.072;6.678;2023-05-15T07:05:56;49.23;;;38.27;;
3000;SDS011;1510;51.072;6.678;2023-05-15T07:08:23;48.93;;;39.20;;
3000;SDS011;1510;51.072;6.678;2023-05-15T07:10:50;43.53;;;33.73;;
3000;SDS011;1510;51.072;6.678;2023-05-15T07:13:18;46.47;;;32.47;;
3000;SDS011;1510;51.072;6.678;2023-05-15T07:15:46;42.87;;;31.97;;
3000;SDS011;1510;51.072;6.678;2023-05-15T07:18:13;50.53;;;28.47;;
3000;SDS011;1510;51.072;6.678;2023-05-15T07:20:39;48.47;;;32.23;;
3000;SDS011;1510;51.072;6.678;2023-05-15T07:23:07;46.03;;;28.93;;
3000;SDS011;1510;51.072;6.678;2023-05-15T07:25:34;40.73;;;24.57;;
3000;SDS011;1510;51.072;6.678;2023-05-15T07:28:01;39.80;;;29.37;;
3000;SDS011;1510;51.072;6.678;2023-05-15T07:30:28;42.90;;;26.90;;
3000;SDS011;1510;51.072;6.678;2023-05-15T07:32:55;46.17;;;28.63;;
3000;SDS011;1510;51.072;6.678;2023-05-15T07:35:21;38.20;;;26.03;;
3000;SDS011;1510;51.072;6.678;2023-05-15T07:37:48;39.87;;;26.87;;
3000;SDS011;1510;51.072;6.678;2023-05-15T07:40:17;38.17;;;27.03;;
3000;SDS011;1510;51.072;6.678;2023-05-15T07:42:44;43.05;;;28.50;;
3000;SDS011;1510;51.072;6.678;2023-05-15T07:45:11;41.95;;;29.27;;
3000;SDS011;1510;51.072;6.678;2023-05-15T07:47:40;44.67;;;27.50;;
3000;SDS011;1510;51.072;6.678;2023-05-15T07:50:10;38.60;;;26.80;;
3000;SDS011;1510;51.072;6.678;2023-05-15T07:52:37;44.50;;;26.37;;
3000;SDS011;1510;51.072;6.678;2023-05-15T07:55:04;40.03;;;26.40;;
3000;SDS011;1510;51.072;6.678;2023-05-15T07:57:33;38.23;;;23.57;;
3000;SDS011;1510;51.072;6.678;2023-05-15T08:00:00;40.83;;;24.67;;
3000;SDS011;1510;51.072;6.678;2023-05-15T08:02:34;41.97;;;27.27;;
3000;SDS011;1510;51.072;6.678;2023-05-15T08:05:01;37.43;;;26.53;;
3000;SDS011;1510;51.072;6.678;2023-05-15T08:07:29;38.20;;;25.00;;
3000;SDS011;1510;51.072;6.678;2023-05-15T08:09:56;39.37;;;24.03;;
3000;SDS011;1510;51.072;6.678;2023-05-15T08:12:24;38.07;;;23.40;;
3000;SDS011;1510;51.072;6.678;2023-05-15T08:14:53;34.77;;;22.70;;
3000;SDS011;1510;51.072;6.678;2023-05-15T08:17:21;29.60;;;16.37;;
3000;SDS011;1510;51.072;6.678;2023-05-15T08:19:48;32.73;;;22.27;;
3000;SDS011;1510;51.072;6.678;2023-05-15T08:22:15;33.77;;;23.77;;
3000;SDS011;1510;51.072;6.678;2023-05-15T08:24:42;45.73;;;26.23;;
3000;SDS011;1510;51.072;6.678;2023-05-15T08:27:09;39.47;;;25.30;;
3000;SDS011;1510;51.072;6.678;2023-05-15T08:29:36;33.13;;;22.20;;
3000;SDS011;1510;51.072;6.678;2023-05-15T08:32:05;34.00;;;23.70;;
3000;SDS011;1510;51.072;6.678;2023-05-15T08:34:33;29.40;;;21.90;;
3000;SDS011;1510;51.072;6.678;2023-05-15T08:37:00;27.43;;;18.53;;
3000;SDS011;1510;51.072;6.678;2023-05-15T08:39:27;30.00;;;20.70;;
3000;SDS011;1510;51.072;6.678;2023-05-15T08:41:55;32.83;;;21.80;;
3000;SDS011;1510;51.072;6.678;2023-05-15T08:44:25;34.33;;;21.50;;
3000;SDS011;1510;51.072;6.678;2023-05-15T08:46:53;28.33;;;21.27;;
3000;SDS011;1510;51.072;6.678;2023-05-15T08:49:24;34.58;;;17.50;;
3000;SDS011;1510;51.072;6.678;2023-05-15T08:52:07;31.90;;;21.40;;
3000;SDS011;1510;51.072;6.678;2023-05-15T08:54:34;30.77;;;21.40;;
3000;SDS011;1510;51.072;6.678;2023-05-15T08:57:02;30.97;;;21.83;;
3000;SDS011;1510;51.072;6.678;2023-05-15T08:59:29;26.70;;;19.05;;
3000;SDS011;1510;51.072;6.678;2023-05-15T09:01:56;27.73;;;18.75;;
3000;SDS011;1510;51.072;6.678;2023-05-15T09:04:24;27.07;;;21.57;;
3000;SDS011;1510;51.072;6.678;2023-05-15T09:06:51;28.43;;;21.33;;
3000;SDS011;1510;51.072;6.678;2023-05-15T09:09:18;25.05;;;19.55;;
3000;SDS011;1510;51.072;6.678;2023-05-15T09:11:47;37.20;;;19.80;;
3000;SDS011;1510;51.072;6.678;2023-05-15T09:14:13;29.07;;;21.40;;
3000;SDS011;1510;51.072;6.678;2023-05-15T09:16:40;30.37;;;22.00;;
3000;SDS011;1510;51.072;6.678;2023-05-15T09:19:07;29.35;;;21.73;;
3000;SDS011;1510;51.072;6.678;2023-05-15T09:21:36;30.43;;;21.97;;
3000;SDS011;1510;51.072;6.678;2023-05-15T09:24:16;27.77;;;20.27;;
3000;SDS011;1510;51.072;6.678;2023-05-15T09:26:46;26.40;;;18.58;;
3000;SDS011;1510;51.072;6.678;2023-05-15T09:29:26;23.87;;;17.67;;
3000;SDS011;1510;51.072;6.678;2023-05-15T09:31:54;27.90;;;19.37;;
3000;SDS011;1510;51.072;6.678;2023-05-15T09:34:27;25.30;;;19.63;;
3000;SDS011;1510;51.072;6.678;2023-05-15T09:36:57;34.27;;;20.03;;
3000;SDS011;1510;51.072;6.678;2023-05-15T09:39:24;23.30;;;19.33;;
3000;SDS011;1510;51.072;6.678;2023-05-15T09:41:51;29.50;;;20.87;;
3000;SDS011;1510;51.072;6.678;2023-05-15T09:44:18;30.93;;;21.40;;
3000;SDS011;1510;51.072;6.678;2023-05-15T09:46:49;23.10;;;16.60;;
3000;SDS011;1510;51.072;6.678;2023-05-15T09:49:16;29.55;;;21.17;;
3000;SDS011;1510;51.072;6.678;2023-05-15T09:51:43;27.70;;;18.70;;
3000;SDS011;1510;51.072;6.678;2023-05-15T09:54:14;22.80;;;16.58;;
3000;SDS011;1510;51.072;6.678;2023-05-15T09:56:43;25.10;;;17.50;;
3000;SDS011;1510;51.072;6.678;2023-05-15T09:59:11;27.27;;;19.97;;
3000;SDS011;1510;51.072;6.678;2023-05-15T10:01:41;26.37;;;18.87;;
3000;SDS011;1510;51.072;6.678;2023-05-15T10:04:09;35.47;;;20.87;;
3000;SDS011;1510;51.072;6.678;2023-05-15T10:06:37;26.45;;;18.35;;
3000;SDS011;1510;51.072;6.678;2023-05-15T10:09:05;22.20;;;17.43;;
3000;SDS011;1510;51.072;6.678;2023-05-15T10:11:34;27.10;;;16.47;;
3000;SDS011;1510;51.072;6.678;2023-05-15T10:14:03;21.60;;;13.60;;
3000;SDS011;1510;51.072;6.678;2023-05-15T10:16:31;30.10;;;17.67;;
3000;SDS011;1510;51.072;6.678;2023-05-15T10:19:00;22.00;;;16.13;;
3000;SDS011;1510;51.072;6.678;2023-05-15T10:21:29;21.17;;;14.00;;
3000;SDS011;1510;51.072;6.678;2023-05-15T10:23:58;24.00;;;16.50;;
3000;SDS011;1510;51.072;6.678;2023-05-15T10:26:28;21.87;;;15.57;;
3000;SDS011;1510;51.072;6.678;2023-05-15T10:29:01;23.07;;;16.57;;
3000;SDS011;1510;51.072;6.678;2023-05-15T10:31:30;20.50;;;15.33;;
3000;SDS011;1510;51.072;6.678;2023-05-15T10:33:59;20.33;;;14.23;;
3000;SDS011;1510;51.072;6.678;2023-05-15T10:36:26;22.33;;;15.48;;
3000;SDS011;1510;51.072;6.678;2023-05-15T10:38:53;18.00;;;13.17;;
3000;SDS011;1510;51.072;6.678;2023-05-15T10:41:20;18.37;;;15.20;;
3000;SDS011;1510;51.072;6.678;2023-05-15T10:43:48;20.80;;;13.77;;
3000;SDS011;1510;51.072;6.678;2023-05-15T10:46:19;19.10;;;13.30;;
3000;SDS011;1510;51.072;6.678;2023-05-15T10:48:47;17.07;;;11.87;;
3000;SDS011;1510;51.072;6.678;2023-05-15T10:51:14;18.85;;;14.20;;
3000;SDS011;1510;51.072;6.678;2023-05-15T10:53:42;18.37;;;13.10;;
3000;SDS011;1510;51.072;6.678;2023-05-15T10:56:11;17.67;;;13.27;;
3000;SDS011;1510;51.072;6.678;2023-05-15T10:58:42;18.03;;;14.33;;
3000;SDS011;1510;51.072;6.678;2023-05-15T11:01:24;19.33;;;13.00;;
3000;SDS011;1510;51.072;6.678;2023-05-15T11:04:03;18.70;;;11.53;;
3000;SDS011;1510;51.072;6.678;2023-05-15T11:06:31;17.20;;;13.30;;
3000;SDS011;1510;51.072;6.678;2023-05-15T11:11:58;19.17;;;13.13;;
3000;SDS011;1510;51.072;6.678;2023-05-15T11:14:26;18.13;;;12.50;;
3000;SDS011;1510;51.072;6.678;2023-05-15T11:17:01;16.90;;;10.23;;
3000;SDS011;1510;51.072;6.678;2023-05-15T11:19:37;22.40;;;13.50;;
3000;SDS011;1510;51.072;6.678;2023-05-15T11:22:19;14.43;;;11.23;;
3000;SDS011;1510;51.072;6.678;2023-05-15T11:24:51;19.77;;;11.67;;
3000;SDS011;1510;51.072;6.678;2023-05-15T11:27:20;16.20;;;11.63;;
3000;SDS011;1510;51.072;6.678;2023-05-15T11:30:07;18.37;;;13.20;;
3000;SDS011;1510;51.072;6.678;2023-05-15T11:32:40;16.03;;;11.50;;
3000;SDS011;1510;51.072;6.678;2023-05-15T11:35:09;16.83;;;12.60;;
3000;SDS011;1510;51.072;6.678;2023-05-15T11:37:36;15.23;;;10.50;;
3000;SDS011;1510;51.072;6.678;2023-05-15T11:40:07;19.03;;;11.40;;
3000;SDS011;1510;51.072;6.678;2023-05-15T11:42:38;14.50;;;11.10;;
3000;SDS011;1510;51.072;6.678;2023-05-15T11:45:06;13.90;;;11.33;;
3000;SDS011;1510;51.072;6.678;2023-05-15T11:47:34;19.83;;;13.07;;
3000;SDS011;1510;51.072;6.678;2023-05-15T11:50:04;16.33;;;11.70;;
3000;SDS011;1510;51.072;6.678;2023-05-15T11:52:31;16.27;;;11.50;;
3000;SDS011;1510;51.072;6.678;2023-05-15T11:54:58;14.67;;;11.73;;
3000;SDS011;1510;51.072;6.678;2023-05-15T11:57:26;14.80;;;12.30;;
3000;SDS011;1510;51.072;6.678;2023-05-15T11:59:53;16.70;;;12.47;;
3000;SDS011;1510;51.072;6.678;2023-05-15T12:02:22;18.27;;;14.27;;
3000;SDS011;1510;51.072;6.678;2023-05-15T12:04:49;18.33;;;13.40;;
3000;SDS011;1510;51.072;6.678;2023-05-15T12:07:17;19.47;;;14.10;;
3000;SDS011;1510;51.072;6.678;2023-05-15T12:09:48;16.83;;;13.57;;
3000;SDS011;1510;51.072;6.678;2023-05-15T12:12:17;13.25;;;11.10;;
3000;SDS011;1510;51.072;6.678;2023-05-15T12:14:44;18.03;;;13.97;;
3000;SDS011;1510;51.072;6.678;2023-05-15T12:17:11;17.30;;;12.53;;
3000;SDS011;1510;51.072;6.678;2023-05-15T12:19:38;16.40;;;11.32;;
3000;SDS011;1510;51.072;6.678;2023-05-15T12:22:06;18.37;;;13.20;;
3000;SDS011;1510;51.072;6.678;2023-05-15T12:24:37;18.63;;;12.07;;
3000;SDS011;1510;51.072;6.678;2023-05-15T12:27:05;16.03;;;13.00;;
3000;SDS011;1510;51.072;6.678;2023-05-15T12:29:32;18.63;;;11.90;;
3000;SDS011;1510;51.072;6.678;2023-05-15T12:32:00;15.67;;;11.50;;
3000;SDS011;1510;51.072;6.678;2023-05-15T12:34:27;18.70;;;12.63;;
3000;SDS011;1510;51.072;6.678;2023-05-15T12:36:54;17.23;;;13.07;;
3000;SDS011;1510;51.072;6.678;2023-05-15T12:39:23;20.23;;;13.00;;
3000;SDS011;1510;51.072;6.678;2023-05-15T12:41:51;17.83;;;11.40;;
3000;SDS011;1510;51.072;6.678;2023-05-15T12:44:19;16.25;;;11.27;;
3000;SDS011;1510;51.072;6.678;2023-05-15T12:46:46;18.00;;;12.53;;
3000;SDS011;1510;51.072;6.678;2023-05-15T12:49:13;23.35;;;12.30;;
3000;SDS011;1510;51.072;6.678;2023-05-15T12:51:46;20.20;;;12.10;;
3000;SDS011;1510;51.072;6.678;2023-05-15T12:54:16;15.97;;;11.10;;
3000;SDS011;1510;51.072;6.678;2023-05-15T12:56:43;13.53;;;10.20;;
3000;SDS011;1510;51.072;6.678;2023-05-15T12:59:12;17.02;;;10.75;;
3000;SDS011;1510;51.072;6.678;2023-05-15T13:01:39;16.00;;;11.40;;
3000;SDS011;1510;51.072;6.678;2023-05-15T13:04:07;14.57;;;10.80;;
3000;SDS011;1510;51.072;6.678;2023-05-15T13:06:36;12.43;;;9.00;;
3000;SDS011;1510;51.072;6.678;2023-05-15T13:09:03;16.47;;;11.10;;
3000;SDS011;1510;51.072;6.678;2023-05-15T13:11:31;13.80;;;10.37;;
3000;SDS011;1510;51.072;6.678;2023-05-15T13:13:58;16.80;;;12.43;;
3000;SDS011;1510;51.072;6.678;2023-05-15T13:16:26;14.83;;;11.40;;
3000;SDS011;1510;51.072;6.678;2023-05-15T13:18:54;15.87;;;12.07;;
3000;SDS011;1510;51.072;6.678;2023-05-15T13:21:22;12.63;;;9.10;;
3000;SDS011;1510;51.072;6.678;2023-05-15T13:23:49;14.97;;;10.67;;
3000;SDS011;1510;51.072;6.678;2023-05-15T13:26:16;20.70;;;11.10;;
3000;SDS011;1510;51.072;6.678;2023-05-15T13:28:43;17.90;;;13.67;;
3000;SDS011;1510;51.072;6.678;2023-05-15T13:31:10;20.00;;;16.03;;
3000;SDS011;1510;51.072;6.678;2023-05-15T13:33:38;23.37;;;16.33;;
3000;SDS011;1510;51.072;6.678;2023-05-15T13:36:05;23.57;;;17.50;;
3000;SDS011;1510;51.072;6.678;2023-05-15T13:38:32;25.03;;;21.70;;
3000;SDS011;1510;51.072;6.678;2023-05-15T13:40:59;20.57;;;17.03;;
3000;SDS011;1510;51.072;6.678;2023-05-15T13:43:26;29.03;;;22.20;;
3000;SDS011;1510;51.072;6.678;2023-05-15T13:45:53;28.10;;;21.83;;
3000;SDS011;1510;51.072;6.678;2023-05-15T13:48:20;30.30;;;22.87;;
3000;SDS011;1510;51.072;6.678;2023-05-15T13:50:48;30.83;;;22.83;;
3000;SDS011;1510;51.072;6.678;2023-05-15T13:53:15;28.43;;;21.07;;
3000;SDS011;1510;51.072;6.678;2023-05-15T13:55:42;26.83;;;21.90;;
3000;SDS011;1510;51.072;6.678;2023-05-15T13:58:09;25.53;;;19.10;;
3000;SDS011;1510;51.072;6.678;2023-05-15T14:00:36;26.02;;;21.13;;
3000;SDS011;1510;51.072;6.678;2023-05-15T14:03:03;29.63;;;21.60;;
3000;SDS011;1510;51.072;6.678;2023-05-15T14:05:30;27.93;;;22.30;;
3000;SDS011;1510;51.072;6.678;2023-05-15T14:07:59;23.10;;;16.43;;
3000;SDS011;1510;51.072;6.678;2023-05-15T14:10:25;27.50;;;20.73;;
3000;SDS011;1510;51.072;6.678;2023-05-15T14:12:52;20.60;;;13.70;;
3000;SDS011;1510;51.072;6.678;2023-05-15T14:15:20;24.37;;;17.40;;
3000;SDS011;1510;51.072;6.678;2023-05-15T14:17:46;21.50;;;17.25;;
3000;SDS011;1510;51.072;6.678;2023-05-15T14:20:14;20.45;;;14.40;;
3000;SDS011;1510;51.072;6.678;2023-05-15T14:22:41;20.53;;;13.90;;
3000;SDS011;1510;51.072;6.678;2023-05-15T14:25:09;21.13;;;13.40;;
3000;SDS011;1510;51.072;6.678;2023-05-15T14:27:36;22.33;;;17.20;;
3000;SDS011;1510;51.072;6.678;2023-05-15T14:30:03;21.67;;;15.17;;
3000;SDS011;1510;51.072;6.678;2023-05-15T14:32:31;17.53;;;12.13;;
3000;SDS011;1510;51.072;6.678;2023-05-15T14:34:58;14.70;;;9.90;;
3000;SDS011;1510;51.072;6.678;2023-05-15T14:37:25;17.60;;;12.77;;
3000;SDS011;1510;51.072;6.678;2023-05-15T14:39:52;14.07;;;9.10;;
3000;SDS011;1510;51.072;6.678;2023-05-15T14:42:20;17.20;;;9.30;;
3000;SDS011;1510;51.072;6.678;2023-05-15T14:44:47;17.13;;;11.80;;
3000;SDS011;1510;51.072;6.678;2023-05-15T14:47:14;15.75;;;10.10;;
3000;SDS011;1510;51.072;6.678;2023-05-15T14:49:41;16.63;;;12.33;;